sensor_id;sensor_type;location;lat;lon;timestamp;pressure;altitude;pressure_sealevel;temperature;humidity
11198;BME280;5655;48.744;9.162;2024-03-22T00:01:50;96836.78;;;13.24;nan
11198;BME280;5655;48.744;9.162;2024-03-22T00:04:16;96834.53;;;12.99;nan
11198;BME280;5655;48.744;9.162;2024-03-22T00:06:42;96836.47;;;12.69;nan
11198;BME280;5655;48.744;9.162;2024-03-22T00:09:08;96849.00;;;12.58;nan
11198;BME280;5655;48.744;9.162;2024-03-22T00:11:34;96831.28;;;12.83;nan
11198;BME280;5655;48.744;9.162;2024-03-22T00:13:59;96823.72;;;12.92;nan
11198;BME280;5655;48.744;9.162;2024-03-22T00:16:24;96817.31;;;13.04;nan
11198;BME280;5655;48.744;9.162;2024-03-22T00:18:50;96816.47;;;12.63;nan
11198;BME280;5655;48.744;9.162;2024-03-22T00:21:15;96819.16;;;12.63;nan
11198;BME280;5655;48.744;9.162;2024-03-22T00:23:40;96817.50;;;12.55;nan
11198;BME280;5655;48.744;9.162;2024-03-22T00:26:07;96822.22;;;12.65;nan
11198;BME280;5655;48.744;9.162;2024-03-22T00:28:32;96814.59;;;12.67;nan
11198;BME280;5655;48.744;9.162;2024-03-22T00:30:58;96821.41;;;12.61;nan
11198;BME280;5655;48.744;9.162;2024-03-22T00:33:23;96821.94;;;12.44;nan
11198;BME280;5655;48.744;9.162;2024-03-22T00:35:49;96817.44;;;12.51;nan
11198;BME280;5655;48.744;9.162;2024-03-22T00:38:14;96809.66;;;12.43;nan
11198;BME280;5655;48.744;9.162;2024-03-22T00:40:39;96810.50;;;12.47;nan
11198;BME280;5655;48.744;9.162;2024-03-22T00:43:04;96802.25;;;12.33;nan
11198;BME280;5655;48.744;9.162;2024-03-22T00:45:30;96805.28;;;12.61;nan
11198;BME280;5655;48.744;9.162;2024-03-22T00:47:56;96811.03;;;12.30;nan
11198;BME280;5655;48.744;9.162;2024-03-22T00:50:22;96799.25;;;12.38;nan
11198;BME280;5655;48.744;9.162;2024-03-22T00:52:49;96799.06;;;12.23;nan
11198;BME280;5655;48.744;9.162;2024-03-22T00:55:15;96794.94;;;12.03;nan
11198;BME280;5655;48.744;9.162;2024-03-22T00:57:40;96792.63;;;11.79;nan
11198;BME280;5655;48.744;9.162;2024-03-22T01:00:06;96784.97;;;11.77;nan
11198;BME280;5655;48.744;9.162;2024-03-22T01:02:31;96782.50;;;11.69;nan
11198;BME280;5655;48.744;9.162;2024-03-22T01:04:57;96773.56;;;11.38;nan
11198;BME280;5655;48.744;9.162;2024-03-22T01:07:22;96769.03;;;11.43;nan
11198;BME280;5655;48.744;9.162;2024-03-22T01:09:47;96767.88;;;11.44;nan
11198;BME280;5655;48.744;9.162;2024-03-22T01:12:12;96758.72;;;11.45;nan
11198;BME280;5655;48.744;9.162;2024-03-22T01:14:38;96767.28;;;11.54;nan
11198;BME280;5655;48.744;9.162;2024-03-22T01:17:03;96762.38;;;11.56;nan
11198;BME280;5655;48.744;9.162;2024-03-22T01:19:29;96755.25;;;11.44;nan
11198;BME280;5655;48.744;9.162;2024-03-22T01:21:54;96753.06;;;11.27;nan
11198;BME280;5655;48.744;9.162;2024-03-22T01:24:19;96754.25;;;11.29;nan
11198;BME280;5655;48.744;9.162;2024-03-22T01:26:44;96749.69;;;11.30;nan
11198;BME280;5655;48.744;9.162;2024-03-22T01:29:10;96745.31;;;11.45;nan
11198;BME280;5655;48.744;9.162;2024-03-22T01:31:35;96748.47;;;11.27;nan
11198;BME280;5655;48.744;9.162;2024-03-22T01:34:00;96734.13;;;11.16;nan
11198;BME280;5655;48.744;9.162;2024-03-22T01:36:26;96737.03;;;11.08;nan
11198;BME280;5655;48.744;9.162;2024-03-22T01:38:51;96737.72;;;11.24;nan
11198;BME280;5655;48.744;9.162;2024-03-22T01:41:16;96738.66;;;11.35;nan
11198;BME280;5655;48.744;9.162;2024-03-22T01:43:43;96740.84;;;11.52;nan
11198;BME280;5655;48.744;9.162;2024-03-22T01:46:08;96749.34;;;11.58;nan
11198;BME280;5655;48.744;9.162;2024-03-22T01:48:34;96749.94;;;11.48;nan
11198;BME280;5655;48.744;9.162;2024-03-22T01:50:59;96747.34;;;11.51;nan
11198;BME280;5655;48.744;9.162;2024-03-22T01:53:25;96745.44;;;11.52;nan
11198;BME280;5655;48.744;9.162;2024-03-22T01:55:50;96740.50;;;11.31;nan
11198;BME280;5655;48.744;9.162;2024-03-22T01:58:16;96733.56;;;11.53;nan
11198;BME280;5655;48.744;9.162;2024-03-22T02:00:42;96735.97;;;11.12;nan
11198;BME280;5655;48.744;9.162;2024-03-22T02:03:08;96738.53;;;11.05;nan
11198;BME280;5655;48.744;9.162;2024-03-22T02:05:33;96740.06;;;11.06;nan
11198;BME280;5655;48.744;9.162;2024-03-22T02:07:58;96729.94;;;10.96;nan
11198;BME280;5655;48.744;9.162;2024-03-22T02:10:24;96729.41;;;11.10;nan
11198;BME280;5655;48.744;9.162;2024-03-22T02:12:49;96729.25;;;10.99;nan
11198;BME280;5655;48.744;9.162;2024-03-22T02:15:14;96723.88;;;10.99;nan
11198;BME280;5655;48.744;9.162;2024-03-22T02:17:40;96714.72;;;11.00;nan
11198;BME280;5655;48.744;9.162;2024-03-22T02:20:05;96713.94;;;11.00;nan
11198;BME280;5655;48.744;9.162;2024-03-22T02:22:31;96711.72;;;11.05;nan
11198;BME280;5655;48.744;9.162;2024-03-22T02:24:56;96709.28;;;10.97;nan
11198;BME280;5655;48.744;9.162;2024-03-22T02:27:22;96702.91;;;10.82;nan
11198;BME280;5655;48.744;9.162;2024-03-22T02:29:47;96710.25;;;10.66;nan
11198;BME280;5655;48.744;9.162;2024-03-22T02:32:13;96696.13;;;10.88;nan
11198;BME280;5655;48.744;9.162;2024-03-22T02:34:38;96699.22;;;10.90;nan
11198;BME280;5655;48.744;9.162;2024-03-22T02:37:04;96701.03;;;11.05;nan
11198;BME280;5655;48.744;9.162;2024-03-22T02:39:29;96701.97;;;10.93;nan
11198;BME280;5655;48.744;9.162;2024-03-22T02:41:55;96705.63;;;10.63;nan
11198;BME280;5655;48.744;9.162;2024-03-22T02:44:21;96703.22;;;10.77;nan
11198;BME280;5655;48.744;9.162;2024-03-22T02:46:46;96697.66;;;10.66;nan
11198;BME280;5655;48.744;9.162;2024-03-22T02:49:12;96696.41;;;10.60;nan
11198;BME280;5655;48.744;9.162;2024-03-22T02:51:37;96694.00;;;10.55;nan
11198;BME280;5655;48.744;9.162;2024-03-22T02:54:04;96701.75;;;10.60;nan
11198;BME280;5655;48.744;9.162;2024-03-22T02:56:29;96698.28;;;10.60;nan
11198;BME280;5655;48.744;9.162;2024-03-22T02:58:55;96684.63;;;10.45;nan
11198;BME280;5655;48.744;9.162;2024-03-22T03:01:20;96680.00;;;10.42;nan
11198;BME280;5655;48.744;9.162;2024-03-22T03:03:46;96678.03;;;10.39;nan
11198;BME280;5655;48.744;9.162;2024-03-22T03:06:11;96676.38;;;10.54;nan
11198;BME280;5655;48.744;9.162;2024-03-22T03:08:38;96685.34;;;10.42;nan
11198;BME280;5655;48.744;9.162;2024-03-22T03:11:04;96679.28;;;10.45;nan
11198;BME280;5655;48.744;9.162;2024-03-22T03:13:29;96685.63;;;10.57;nan
11198;BME280;5655;48.744;9.162;2024-03-22T03:15:54;96683.09;;;10.44;nan
11198;BME280;5655;48.744;9.162;2024-03-22T03:18:20;96681.47;;;10.40;nan
11198;BME280;5655;48.744;9.162;2024-03-22T03:20:45;96679.44;;;10.53;nan
11198;BME280;5655;48.744;9.162;2024-03-22T03:23:10;96673.44;;;10.59;nan
11198;BME280;5655;48.744;9.162;2024-03-22T03:25:35;96678.03;;;10.39;nan
11198;BME280;5655;48.744;9.162;2024-03-22T03:28:01;96677.09;;;10.51;nan
11198;BME280;5655;48.744;9.162;2024-03-22T03:30:26;96678.34;;;10.57;nan
11198;BME280;5655;48.744;9.162;2024-03-22T03:32:51;96667.59;;;10.54;nan
11198;BME280;5655;48.744;9.162;2024-03-22T03:35:17;96678.13;;;10.66;nan
11198;BME280;5655;48.744;9.162;2024-03-22T03:37:42;96665.94;;;10.68;nan
11198;BME280;5655;48.744;9.162;2024-03-22T03:40:08;96663.63;;;10.67;nan
11198;BME280;5655;48.744;9.162;2024-03-22T03:42:33;96654.41;;;10.64;nan
11198;BME280;5655;48.744;9.162;2024-03-22T03:44:59;96663.75;;;10.74;nan
11198;BME280;5655;48.744;9.162;2024-03-22T03:47:24;96666.06;;;10.75;nan
11198;BME280;5655;48.744;9.162;2024-03-22T03:49:49;96665.22;;;10.71;nan
11198;BME280;5655;48.744;9.162;2024-03-22T03:52:15;96661.19;;;10.81;nan
11198;BME280;5655;48.744;9.162;2024-03-22T03:54:40;96657.69;;;10.77;nan
11198;BME280;5655;48.744;9.162;2024-03-22T03:57:05;96655.88;;;10.62;nan
11198;BME280;5655;48.744;9.162;2024-03-22T03:59:31;96658.53;;;10.81;nan
11198;BME280;5655;48.744;9.162;2024-03-22T04:01:56;96655.41;;;10.79;nan
11198;BME280;5655;48.744;9.162;2024-03-22T04:04:21;96657.41;;;10.82;nan
11198;BME280;5655;48.744;9.162;2024-03-22T04:06:47;96651.56;;;10.76;nan
11198;BME280;5655;48.744;9.162;2024-03-22T04:09:13;96654.78;;;10.85;nan
11198;BME280;5655;48.744;9.162;2024-03-22T04:11:38;96656.97;;;10.80;nan
11198;BME280;5655;48.744;9.162;2024-03-22T04:14:04;96658.94;;;10.83;nan
11198;BME280;5655;48.744;9.162;2024-03-22T04:16:30;96660.91;;;10.86;nan
11198;BME280;5655;48.744;9.162;2024-03-22T04:18:55;96648.53;;;10.78;nan
11198;BME280;5655;48.744;9.162;2024-03-22T04:21:21;96655.56;;;10.86;nan
11198;BME280;5655;48.744;9.162;2024-03-22T04:23:46;96650.91;;;10.83;nan
11198;BME280;5655;48.744;9.162;2024-03-22T04:26:11;96654.34;;;10.61;nan
11198;BME280;5655;48.744;9.162;2024-03-22T04:28:37;96657.38;;;10.59;nan
11198;BME280;5655;48.744;9.162;2024-03-22T04:31:04;96647.69;;;10.74;nan
11198;BME280;5655;48.744;9.162;2024-03-22T04:33:31;96642.66;;;10.50;nan
11198;BME280;5655;48.744;9.162;2024-03-22T04:35:57;96650.47;;;10.58;nan
11198;BME280;5655;48.744;9.162;2024-03-22T04:38:26;96659.25;;;10.78;nan
11198;BME280;5655;48.744;9.162;2024-03-22T04:40:52;96651.25;;;10.59;nan
11198;BME280;5655;48.744;9.162;2024-03-22T04:43:18;96653.81;;;10.74;nan
11198;BME280;5655;48.744;9.162;2024-03-22T04:45:47;96656.44;;;10.71;nan
11198;BME280;5655;48.744;9.162;2024-03-22T04:48:14;96659.22;;;11.01;nan
11198;BME280;5655;48.744;9.162;2024-03-22T04:50:39;96662.00;;;11.04;nan
11198;BME280;5655;48.744;9.162;2024-03-22T04:53:05;96664.66;;;11.04;nan
11198;BME280;5655;48.744;9.162;2024-03-22T04:55:31;96659.41;;;11.11;nan
11198;BME280;5655;48.744;9.162;2024-03-22T04:57:58;96669.78;;;11.13;nan
11198;BME280;5655;48.744;9.162;2024-03-22T05:00:23;96662.81;;;11.08;nan
11198;BME280;5655;48.744;9.162;2024-03-22T05:02:50;96662.94;;;11.15;nan
11198;BME280;5655;48.744;9.162;2024-03-22T05:05:15;96671.16;;;11.03;nan
11198;BME280;5655;48.744;9.162;2024-03-22T05:07:41;96659.41;;;10.88;nan
11198;BME280;5655;48.744;9.162;2024-03-22T05:10:06;96659.00;;;11.09;nan
11198;BME280;5655;48.744;9.162;2024-03-22T05:12:31;96652.09;;;11.08;nan
11198;BME280;5655;48.744;9.162;2024-03-22T05:14:57;96651.97;;;11.01;nan
11198;BME280;5655;48.744;9.162;2024-03-22T05:17:22;96655.66;;;11.16;nan
11198;BME280;5655;48.744;9.162;2024-03-22T05:19:48;96656.72;;;11.34;nan
11198;BME280;5655;48.744;9.162;2024-03-22T05:22:13;96651.63;;;11.25;nan
11198;BME280;5655;48.744;9.162;2024-03-22T05:24:38;96654.66;;;11.24;nan
11198;BME280;5655;48.744;9.162;2024-03-22T05:27:04;96650.78;;;11.21;nan
11198;BME280;5655;48.744;9.162;2024-03-22T05:29:29;96642.63;;;11.41;nan
11198;BME280;5655;48.744;9.162;2024-03-22T05:31:54;96648.50;;;11.23;nan
11198;BME280;5655;48.744;9.162;2024-03-22T05:34:20;96637.97;;;11.34;nan
11198;BME280;5655;48.744;9.162;2024-03-22T05:36:45;96637.88;;;11.30;nan
11198;BME280;5655;48.744;9.162;2024-03-22T05:39:11;96633.06;;;11.39;nan
11198;BME280;5655;48.744;9.162;2024-03-22T05:41:37;96634.31;;;11.46;nan
11198;BME280;5655;48.744;9.162;2024-03-22T05:44:02;96632.88;;;11.52;nan
11198;BME280;5655;48.744;9.162;2024-03-22T05:46:28;96630.63;;;11.57;nan
11198;BME280;5655;48.744;9.162;2024-03-22T05:48:54;96627.03;;;11.46;nan
11198;BME280;5655;48.744;9.162;2024-03-22T05:51:19;96623.66;;;11.26;nan
11198;BME280;5655;48.744;9.162;2024-03-22T05:53:44;96614.94;;;11.29;nan
11198;BME280;5655;48.744;9.162;2024-03-22T05:56:10;96611.94;;;11.08;nan
11198;BME280;5655;48.744;9.162;2024-03-22T05:58:35;96607.72;;;11.33;nan
11198;BME280;5655;48.744;9.162;2024-03-22T06:01:01;96606.72;;;11.45;nan
11198;BME280;5655;48.744;9.162;2024-03-22T06:03:28;96603.38;;;11.25;nan
11198;BME280;5655;48.744;9.162;2024-03-22T06:05:53;96614.81;;;11.49;nan
11198;BME280;5655;48.744;9.162;2024-03-22T06:08:21;96606.50;;;11.57;nan
11198;BME280;5655;48.744;9.162;2024-03-22T06:10:47;96593.28;;;11.42;nan
11198;BME280;5655;48.744;9.162;2024-03-22T06:13:12;96601.53;;;11.56;nan
11198;BME280;5655;48.744;9.162;2024-03-22T06:15:37;96601.59;;;11.63;nan
11198;BME280;5655;48.744;9.162;2024-03-22T06:18:03;96602.03;;;11.65;nan
11198;BME280;5655;48.744;9.162;2024-03-22T06:20:28;96600.88;;;11.66;nan
11198;BME280;5655;48.744;9.162;2024-03-22T06:22:55;96605.44;;;11.65;nan
11198;BME280;5655;48.744;9.162;2024-03-22T06:25:21;96596.19;;;11.59;nan
11198;BME280;5655;48.744;9.162;2024-03-22T06:27:46;96603.03;;;11.57;nan
11198;BME280;5655;48.744;9.162;2024-03-22T06:30:11;96608.41;;;11.57;nan
11198;BME280;5655;48.744;9.162;2024-03-22T06:32:37;96602.59;;;11.51;nan
11198;BME280;5655;48.744;9.162;2024-03-22T06:35:02;96605.84;;;11.37;nan
11198;BME280;5655;48.744;9.162;2024-03-22T06:37:28;96604.09;;;11.49;nan
11198;BME280;5655;48.744;9.162;2024-03-22T06:39:53;96594.44;;;11.44;nan
11198;BME280;5655;48.744;9.162;2024-03-22T06:42:19;96598.16;;;11.62;nan
11198;BME280;5655;48.744;9.162;2024-03-22T06:44:44;96597.06;;;11.67;nan
11198;BME280;5655;48.744;9.162;2024-03-22T06:47:09;96588.72;;;11.72;nan
11198;BME280;5655;48.744;9.162;2024-03-22T06:49:34;96596.09;;;11.78;nan
11198;BME280;5655;48.744;9.162;2024-03-22T06:52:00;96592.31;;;11.83;nan
11198;BME280;5655;48.744;9.162;2024-03-22T06:54:25;96596.47;;;11.77;nan
11198;BME280;5655;48.744;9.162;2024-03-22T06:56:51;96595.88;;;11.91;nan
11198;BME280;5655;48.744;9.162;2024-03-22T06:59:16;96584.47;;;12.01;nan
11198;BME280;5655;48.744;9.162;2024-03-22T07:01:42;96590.09;;;12.25;nan
11198;BME280;5655;48.744;9.162;2024-03-22T07:04:07;96596.22;;;12.22;nan
11198;BME280;5655;48.744;9.162;2024-03-22T07:06:33;96592.91;;;12.36;nan
11198;BME280;5655;48.744;9.162;2024-03-22T07:08:58;96597.13;;;12.34;nan
11198;BME280;5655;48.744;9.162;2024-03-22T07:11:23;96589.97;;;12.48;nan
11198;BME280;5655;48.744;9.162;2024-03-22T07:13:49;96590.44;;;12.57;nan
11198;BME280;5655;48.744;9.162;2024-03-22T07:16:14;96587.59;;;12.80;nan
11198;BME280;5655;48.744;9.162;2024-03-22T07:18:39;96586.31;;;12.67;nan
11198;BME280;5655;48.744;9.162;2024-03-22T07:21:05;96583.34;;;12.79;nan
11198;BME280;5655;48.744;9.162;2024-03-22T07:23:30;96588.88;;;13.00;nan
11198;BME280;5655;48.744;9.162;2024-03-22T07:25:56;96583.09;;;12.95;nan
11198;BME280;5655;48.744;9.162;2024-03-22T07:28:21;96585.44;;;13.03;nan
11198;BME280;5655;48.744;9.162;2024-03-22T07:30:46;96578.72;;;13.24;nan
11198;BME280;5655;48.744;9.162;2024-03-22T07:33:12;96574.66;;;13.51;nan
11198;BME280;5655;48.744;9.162;2024-03-22T07:35:42;96570.81;;;13.52;nan
11198;BME280;5655;48.744;9.162;2024-03-22T07:38:08;96575.88;;;13.60;nan
11198;BME280;5655;48.744;9.162;2024-03-22T07:40:33;96564.72;;;13.58;nan
11198;BME280;5655;48.744;9.162;2024-03-22T07:42:59;96575.94;;;13.78;nan
11198;BME280;5655;48.744;9.162;2024-03-22T07:45:24;96567.56;;;13.94;nan
11198;BME280;5655;48.744;9.162;2024-03-22T07:47:50;96570.72;;;14.10;nan
11198;BME280;5655;48.744;9.162;2024-03-22T07:50:15;96566.47;;;14.05;nan
11198;BME280;5655;48.744;9.162;2024-03-22T07:52:40;96562.94;;;13.98;nan
11198;BME280;5655;48.744;9.162;2024-03-22T07:55:06;96560.72;;;14.25;nan
11198;BME280;5655;48.744;9.162;2024-03-22T07:57:31;96567.34;;;14.38;nan
11198;BME280;5655;48.744;9.162;2024-03-22T07:59:57;96565.03;;;14.54;nan
11198;BME280;5655;48.744;9.162;2024-03-22T08:02:23;96559.69;;;14.72;nan
11198;BME280;5655;48.744;9.162;2024-03-22T08:04:49;96563.91;;;14.80;nan
11198;BME280;5655;48.744;9.162;2024-03-22T08:07:14;96564.69;;;14.70;nan
11198;BME280;5655;48.744;9.162;2024-03-22T08:09:39;96577.81;;;14.92;nan
11198;BME280;5655;48.744;9.162;2024-03-22T08:12:05;96569.72;;;14.96;nan
11198;BME280;5655;48.744;9.162;2024-03-22T08:14:31;96573.94;;;15.22;nan
11198;BME280;5655;48.744;9.162;2024-03-22T08:16:56;96552.31;;;15.32;nan
11198;BME280;5655;48.744;9.162;2024-03-22T08:19:22;96561.19;;;15.43;nan
11198;BME280;5655;48.744;9.162;2024-03-22T08:21:47;96560.00;;;15.44;nan
11198;BME280;5655;48.744;9.162;2024-03-22T08:24:12;96560.78;;;15.59;nan
11198;BME280;5655;48.744;9.162;2024-03-22T08:26:38;96552.25;;;15.71;nan
11198;BME280;5655;48.744;9.162;2024-03-22T08:29:03;96554.53;;;15.80;nan
11198;BME280;5655;48.744;9.162;2024-03-22T08:31:29;96540.31;;;15.72;nan
11198;BME280;5655;48.744;9.162;2024-03-22T08:33:54;96545.13;;;16.09;nan
11198;BME280;5655;48.744;9.162;2024-03-22T08:36:21;96543.41;;;16.40;nan
11198;BME280;5655;48.744;9.162;2024-03-22T08:38:47;96540.28;;;16.52;nan
11198;BME280;5655;48.744;9.162;2024-03-22T08:41:12;96531.75;;;16.57;nan
11198;BME280;5655;48.744;9.162;2024-03-22T08:43:37;96527.94;;;16.51;nan
11198;BME280;5655;48.744;9.162;2024-03-22T08:46:03;96527.91;;;16.58;nan
11198;BME280;5655;48.744;9.162;2024-03-22T08:48:28;96535.19;;;16.61;nan
11198;BME280;5655;48.744;9.162;2024-03-22T08:50:54;96523.22;;;16.62;nan
11198;BME280;5655;48.744;9.162;2024-03-22T08:53:20;96522.44;;;16.69;nan
11198;BME280;5655;48.744;9.162;2024-03-22T08:55:48;96516.88;;;16.87;nan
11198;BME280;5655;48.744;9.162;2024-03-22T08:58:14;96518.88;;;16.75;nan
11198;BME280;5655;48.744;9.162;2024-03-22T09:00:41;96519.00;;;17.06;nan
11198;BME280;5655;48.744;9.162;2024-03-22T09:03:06;96511.72;;;17.40;nan
11198;BME280;5655;48.744;9.162;2024-03-22T09:05:32;96512.91;;;16.98;nan
11198;BME280;5655;48.744;9.162;2024-03-22T09:07:58;96512.97;;;16.91;nan
11198;BME280;5655;48.744;9.162;2024-03-22T09:10:24;96507.41;;;17.05;nan
11198;BME280;5655;48.744;9.162;2024-03-22T09:12:49;96515.25;;;16.93;nan
11198;BME280;5655;48.744;9.162;2024-03-22T09:15:14;96509.00;;;17.03;nan
11198;BME280;5655;48.744;9.162;2024-03-22T09:17:40;96505.53;;;17.02;nan
11198;BME280;5655;48.744;9.162;2024-03-22T09:20:06;96511.56;;;17.17;nan
11198;BME280;5655;48.744;9.162;2024-03-22T09:22:32;96499.38;;;17.36;nan
11198;BME280;5655;48.744;9.162;2024-03-22T09:24:58;96502.50;;;17.34;nan
11198;BME280;5655;48.744;9.162;2024-03-22T09:27:23;96500.06;;;17.43;nan
11198;BME280;5655;48.744;9.162;2024-03-22T09:29:49;96494.69;;;17.40;nan
11198;BME280;5655;48.744;9.162;2024-03-22T09:32:14;96495.31;;;17.54;nan
11198;BME280;5655;48.744;9.162;2024-03-22T09:34:39;96488.06;;;17.82;nan
11198;BME280;5655;48.744;9.162;2024-03-22T09:37:05;96487.38;;;17.74;nan
11198;BME280;5655;48.744;9.162;2024-03-22T09:39:31;96487.81;;;17.99;nan
11198;BME280;5655;48.744;9.162;2024-03-22T09:41:58;96487.09;;;17.95;nan
11198;BME280;5655;48.744;9.162;2024-03-22T09:44:27;96486.50;;;18.11;nan
11198;BME280;5655;48.744;9.162;2024-03-22T09:46:52;96475.56;;;18.45;nan
11198;BME280;5655;48.744;9.162;2024-03-22T09:49:18;96475.06;;;18.53;nan
11198;BME280;5655;48.744;9.162;2024-03-22T09:51:44;96477.25;;;18.85;nan
11198;BME280;5655;48.744;9.162;2024-03-22T09:54:12;96471.63;;;18.96;nan
11198;BME280;5655;48.744;9.162;2024-03-22T09:56:42;96474.16;;;19.50;nan
11198;BME280;5655;48.744;9.162;2024-03-22T09:59:08;96464.09;;;19.27;nan
11198;BME280;5655;48.744;9.162;2024-03-22T10:01:38;96458.16;;;19.12;nan
11198;BME280;5655;48.744;9.162;2024-03-22T10:04:05;96459.47;;;19.04;nan
11198;BME280;5655;48.744;9.162;2024-03-22T10:06:30;96445.59;;;19.41;nan
11198;BME280;5655;48.744;9.162;2024-03-22T10:08:59;96449.22;;;19.55;nan
11198;BME280;5655;48.744;9.162;2024-03-22T10:11:28;96441.44;;;19.57;nan
11198;BME280;5655;48.744;9.162;2024-03-22T10:13:53;96437.06;;;19.63;nan
11198;BME280;5655;48.744;9.162;2024-03-22T10:16:23;96432.69;;;19.85;nan
11198;BME280;5655;48.744;9.162;2024-03-22T10:18:48;96433.19;;;19.80;nan
11198;BME280;5655;48.744;9.162;2024-03-22T10:21:17;96425.69;;;20.20;nan
11198;BME280;5655;48.744;9.162;2024-03-22T10:23:46;96424.09;;;20.22;nan
11198;BME280;5655;48.744;9.162;2024-03-22T10:26:13;96419.75;;;20.25;nan
11198;BME280;5655;48.744;9.162;2024-03-22T10:28:46;96419.84;;;20.21;nan
11198;BME280;5655;48.744;9.162;2024-03-22T10:31:12;96409.88;;;19.99;nan
11198;BME280;5655;48.744;9.162;2024-03-22T10:33:38;96412.69;;;20.11;nan
11198;BME280;5655;48.744;9.162;2024-03-22T10:36:04;96401.75;;;20.15;nan
11198;BME280;5655;48.744;9.162;2024-03-22T10:38:30;96401.84;;;20.27;nan
11198;BME280;5655;48.744;9.162;2024-03-22T10:40:57;96395.28;;;20.25;nan
11198;BME280;5655;48.744;9.162;2024-03-22T10:43:22;96395.47;;;20.18;nan
11198;BME280;5655;48.744;9.162;2024-03-22T10:45:50;96390.72;;;20.38;nan
11198;BME280;5655;48.744;9.162;2024-03-22T10:48:17;96385.00;;;20.16;nan
11198;BME280;5655;48.744;9.162;2024-03-22T10:50:44;96384.69;;;20.14;nan
11198;BME280;5655;48.744;9.162;2024-03-22T10:53:16;96377.03;;;20.25;nan
11198;BME280;5655;48.744;9.162;2024-03-22T10:55:46;96376.19;;;20.12;nan
11198;BME280;5655;48.744;9.162;2024-03-22T10:58:22;96371.88;;;20.76;nan
11198;BME280;5655;48.744;9.162;2024-03-22T11:00:51;96369.16;;;20.76;nan
11198;BME280;5655;48.744;9.162;2024-03-22T11:03:23;96355.56;;;21.34;nan
11198;BME280;5655;48.744;9.162;2024-03-22T11:05:53;96365.00;;;20.71;nan
11198;BME280;5655;48.744;9.162;2024-03-22T11:10:50;96361.44;;;20.74;nan
11198;BME280;5655;48.744;9.162;2024-03-22T11:13:16;96358.50;;;21.26;nan
11198;BME280;5655;48.744;9.162;2024-03-22T11:15:42;96349.38;;;21.46;nan
11198;BME280;5655;48.744;9.162;2024-03-22T11:18:07;96347.03;;;21.98;nan
11198;BME280;5655;48.744;9.162;2024-03-22T11:20:36;96348.41;;;22.28;nan
11198;BME280;5655;48.744;9.162;2024-03-22T11:23:03;96345.25;;;22.30;nan
11198;BME280;5655;48.744;9.162;2024-03-22T11:25:31;96340.19;;;22.41;nan
11198;BME280;5655;48.744;9.162;2024-03-22T11:27:57;96338.59;;;22.65;nan
11198;BME280;5655;48.744;9.162;2024-03-22T11:30:24;96325.81;;;22.62;nan
11198;BME280;5655;48.744;9.162;2024-03-22T11:32:49;96330.00;;;22.54;nan
11198;BME280;5655;48.744;9.162;2024-03-22T11:35:15;96327.28;;;22.54;nan
11198;BME280;5655;48.744;9.162;2024-03-22T11:37:41;96315.72;;;22.50;nan
11198;BME280;5655;48.744;9.162;2024-03-22T11:40:08;96309.38;;;22.87;nan
11198;BME280;5655;48.744;9.162;2024-03-22T11:42:36;96308.56;;;22.99;nan
11198;BME280;5655;48.744;9.162;2024-03-22T11:45:02;96306.97;;;23.11;nan
11198;BME280;5655;48.744;9.162;2024-03-22T11:47:28;96291.53;;;23.48;nan
11198;BME280;5655;48.744;9.162;2024-03-22T11:49:55;96298.63;;;23.15;nan
11198;BME280;5655;48.744;9.162;2024-03-22T11:52:27;96281.25;;;22.78;nan
11198;BME280;5655;48.744;9.162;2024-03-22T11:54:52;96291.94;;;22.03;nan
11198;BME280;5655;48.744;9.162;2024-03-22T11:57:18;96279.97;;;22.70;nan
11198;BME280;5655;48.744;9.162;2024-03-22T11:59:43;96279.50;;;23.15;nan
11198;BME280;5655;48.744;9.162;2024-03-22T12:02:09;96281.00;;;22.85;nan
11198;BME280;5655;48.744;9.162;2024-03-22T12:04:35;96272.97;;;23.12;nan
11198;BME280;5655;48.744;9.162;2024-03-22T12:07:00;96268.78;;;23.20;nan
11198;BME280;5655;48.744;9.162;2024-03-22T12:09:25;96271.34;;;22.71;nan
11198;BME280;5655;48.744;9.162;2024-03-22T12:11:51;96269.53;;;22.34;nan
11198;BME280;5655;48.744;9.162;2024-03-22T12:14:16;96273.66;;;21.53;nan
11198;BME280;5655;48.744;9.162;2024-03-22T12:16:41;96265.03;;;21.93;nan
11198;BME280;5655;48.744;9.162;2024-03-22T12:19:07;96253.78;;;21.91;nan
11198;BME280;5655;48.744;9.162;2024-03-22T12:21:32;96252.34;;;22.11;nan
11198;BME280;5655;48.744;9.162;2024-03-22T12:23:57;96242.06;;;22.50;nan
11198;BME280;5655;48.744;9.162;2024-03-22T12:26:23;96243.09;;;21.84;nan
11198;BME280;5655;48.744;9.162;2024-03-22T12:28:48;96228.78;;;22.17;nan
11198;BME280;5655;48.744;9.162;2024-03-22T12:31:13;96225.59;;;22.19;nan
11198;BME280;5655;48.744;9.162;2024-03-22T12:33:39;96222.56;;;21.70;nan
11198;BME280;5655;48.744;9.162;2024-03-22T12:36:04;96213.72;;;21.66;nan
11198;BME280;5655;48.744;9.162;2024-03-22T12:38:29;96210.59;;;22.02;nan
11198;BME280;5655;48.744;9.162;2024-03-22T12:40:55;96207.66;;;21.96;nan
11198;BME280;5655;48.744;9.162;2024-03-22T12:43:21;96207.03;;;21.92;nan
11198;BME280;5655;48.744;9.162;2024-03-22T12:45:46;96203.25;;;21.77;nan
11198;BME280;5655;48.744;9.162;2024-03-22T12:48:12;96195.28;;;21.95;nan
11198;BME280;5655;48.744;9.162;2024-03-22T12:50:37;96188.94;;;21.98;nan
11198;BME280;5655;48.744;9.162;2024-03-22T12:53:03;96191.97;;;22.35;nan
11198;BME280;5655;48.744;9.162;2024-03-22T12:55:29;96185.22;;;22.27;nan
11198;BME280;5655;48.744;9.162;2024-03-22T12:57:56;96176.03;;;22.55;nan
11198;BME280;5655;48.744;9.162;2024-03-22T13:00:22;96178.53;;;22.06;nan
11198;BME280;5655;48.744;9.162;2024-03-22T13:02:47;96175.88;;;22.15;nan
11198;BME280;5655;48.744;9.162;2024-03-22T13:05:13;96157.63;;;22.46;nan
11198;BME280;5655;48.744;9.162;2024-03-22T13:07:38;96160.38;;;22.25;nan
11198;BME280;5655;48.744;9.162;2024-03-22T13:10:04;96154.56;;;22.66;nan
11198;BME280;5655;48.744;9.162;2024-03-22T13:12:30;96151.66;;;22.82;nan
11198;BME280;5655;48.744;9.162;2024-03-22T13:14:57;96143.34;;;22.64;nan
11198;BME280;5655;48.744;9.162;2024-03-22T13:17:22;96136.09;;;23.01;nan
11198;BME280;5655;48.744;9.162;2024-03-22T13:19:47;96133.88;;;22.78;nan
11198;BME280;5655;48.744;9.162;2024-03-22T13:22:13;96133.47;;;22.88;nan
11198;BME280;5655;48.744;9.162;2024-03-22T13:24:40;96126.88;;;23.08;nan
11198;BME280;5655;48.744;9.162;2024-03-22T13:27:05;96121.88;;;22.75;nan